createdAt,value
2022-11-16T00:02:34.277Z,50.21
2022-11-16T00:07:26.917Z,50.28
2022-11-16T00:12:19.193Z,50.28
2022-11-16T00:17:11.782Z,50.27
2022-11-16T00:22:04.381Z,50.26
2022-11-16T00:26:56.958Z,50.27
2022-11-16T00:31:49.491Z,50.2
2022-11-16T00:36:41.807Z,50.25
2022-11-16T00:41:34.299Z,50.23
2022-11-16T00:46:26.820Z,50.23
2022-11-16T00:51:19.362Z,50.23
2022-11-16T00:56:12.006Z,50.29
2022-11-16T01:01:04.494Z,50.3
2022-11-16T01:05:57.001Z,50.27
2022-11-16T01:10:49.409Z,50.26
2022-11-16T01:15:42.046Z,50.29
2022-11-16T01:20:34.474Z,50.26
2022-11-16T01:25:27.175Z,50.3
2022-11-16T01:30:19.537Z,50.36
2022-11-16T01:35:12.319Z,50.36
2022-11-16T01:40:04.870Z,50.37
2022-11-16T01:44:57.471Z,50.41
2022-11-16T01:49:50.112Z,50.35
2022-11-16T01:54:42.768Z,50.39
2022-11-16T01:59:35.457Z,50.34
2022-11-16T02:09:20.614Z,50.47
2022-11-16T02:19:05.877Z,50.46
2022-11-16T02:23:58.382Z,50.49
2022-11-16T02:28:51.111Z,50.54
2022-11-16T02:33:43.735Z,50.62
2022-11-16T02:38:36.466Z,50.59
2022-11-16T02:43:28.580Z,50.59
2022-11-16T02:48:21.095Z,50.57
2022-11-16T02:53:13.720Z,50.63
2022-11-16T02:58:06.411Z,50.58
2022-11-16T03:02:59.026Z,50.55
2022-11-16T03:07:51.600Z,50.53
2022-11-16T03:12:44.197Z,50.57
2022-11-16T03:17:36.818Z,50.62
2022-11-16T03:22:29.251Z,50.64
2022-11-16T03:27:21.917Z,50.67
2022-11-16T03:32:14.491Z,50.63
2022-11-16T03:37:07.107Z,50.5
2022-11-16T03:41:59.789Z,50.47
2022-11-16T03:46:52.552Z,50.43
2022-11-16T03:51:45.150Z,50.15
2022-11-16T03:56:37.822Z,50.07
2022-11-16T04:01:30.498Z,50.21
2022-11-16T04:06:22.978Z,49.95
2022-11-16T04:11:15.393Z,50.1
2022-11-16T04:16:08.052Z,50.14
2022-11-16T04:21:00.564Z,49.88
2022-11-16T04:25:53.352Z,50.1
2022-11-16T04:30:46.074Z,50.06
2022-11-16T04:35:38.519Z,50.09
2022-11-16T04:40:31.061Z,49.68
2022-11-16T04:45:23.671Z,49.85
2022-11-16T04:50:15.970Z,49.77
2022-11-16T04:55:08.759Z,50.15
2022-11-16T05:00:01.623Z,49.48
2022-11-16T05:04:54.253Z,49.59
2022-11-16T05:09:46.952Z,49.55
2022-11-16T05:14:39.485Z,49.45
2022-11-16T05:19:32.474Z,49.34
2022-11-16T05:24:25.307Z,48.51
2022-11-16T05:29:17.782Z,49.09
2022-11-16T05:34:10.518Z,51.52
2022-11-16T05:39:02.731Z,49.19
2022-11-16T12:57:00.006Z,51.54
2022-11-16T13:01:59.195Z,50.89
2022-11-16T13:06:47.720Z,51.67
2022-11-16T13:11:40.457Z,50.64
2022-11-16T13:16:33.365Z,49.85
2022-11-16T13:21:25.829Z,49.39
2022-11-16T13:26:18.720Z,49.1
2022-11-16T13:31:11.569Z,49.22
2022-11-16T13:36:04.572Z,49.02
2022-11-16T13:40:57.032Z,48.86
2022-11-16T13:45:49.684Z,48.89
2022-11-16T13:50:42.461Z,48.4
2022-11-16T13:55:35.293Z,48.18
2022-11-16T14:00:28.070Z,47.66
2022-11-16T14:05:20.790Z,48.31
2022-11-16T14:10:13.405Z,47.57
2022-11-16T14:15:05.940Z,47.05
2022-11-16T14:19:58.196Z,46.98
2022-11-16T14:24:50.587Z,46.9
2022-11-16T14:29:43.389Z,46.9
2022-11-16T14:34:36.210Z,47.1
2022-11-16T14:39:28.566Z,47.09
2022-11-16T14:49:14.056Z,47.31
2022-11-16T14:54:06.518Z,47.36
2022-11-16T14:58:58.849Z,47.48
2022-11-16T15:03:51.478Z,47.77
2022-11-16T15:08:44.300Z,47.44
2022-11-16T15:13:37.573Z,47.22
2022-11-16T15:18:29.885Z,47.4
2022-11-16T15:23:26.221Z,47
2022-11-16T15:28:15.257Z,46.96
2022-11-16T15:33:08.957Z,47.18
2022-11-16T15:38:00.203Z,47.39
2022-11-16T15:42:52.854Z,47.27
2022-11-16T15:47:45.527Z,47.15
2022-11-16T15:52:38.430Z,47.08
2022-11-16T15:57:31.209Z,46.95
2022-11-16T16:02:23.952Z,46.88
2022-11-16T16:07:16.685Z,46.93
2022-11-16T16:12:09.420Z,46.96
2022-11-16T16:17:01.492Z,47.13
2022-11-16T16:21:54.065Z,47.13
2022-11-16T16:26:46.671Z,47.33
2022-11-16T16:31:39.306Z,47.43
2022-11-16T16:36:31.795Z,47.55
2022-11-16T16:41:24.866Z,47.66
2022-11-16T16:46:17.006Z,47.67
2022-11-16T16:51:09.788Z,47.85
2022-11-16T16:56:02.151Z,48
2022-11-16T17:00:59.954Z,48.15
2022-11-16T17:05:47.416Z,48.16
2022-11-16T17:10:40.112Z,48.27
2022-11-16T17:15:32.526Z,48.37
2022-11-16T17:20:25.368Z,48.49
2022-11-16T17:25:18.060Z,48.63
2022-11-16T17:30:10.588Z,48.73
2022-11-16T17:35:03.048Z,48.18
2022-11-16T17:39:55.783Z,48.8
2022-11-16T17:44:48.644Z,48.3
2022-11-16T17:49:41.308Z,48.35
2022-11-16T17:54:34.105Z,49.74
2022-11-16T17:59:29.671Z,49.05
2022-11-16T18:04:19.409Z,50.94
2022-11-16T18:09:12.012Z,52.29
2022-11-16T18:14:04.798Z,51.88
2022-11-16T18:18:57.610Z,52.65
2022-11-16T18:23:50.250Z,52.99
2022-11-16T18:28:42.776Z,53.8
2022-11-16T18:33:35.359Z,52.12
2022-11-16T18:38:27.714Z,54.17
2022-11-16T18:43:20.498Z,52.51
2022-11-16T18:48:13.221Z,52.38
2022-11-16T18:53:05.673Z,51.81
2022-11-16T18:57:58.045Z,51.09
2022-11-16T19:02:50.330Z,51.17
2022-11-16T19:07:42.920Z,51.17
2022-11-16T19:12:35.316Z,51.2
2022-11-16T19:17:27.920Z,51.44
2022-11-16T19:22:20.553Z,51.33
2022-11-16T19:27:13.164Z,51.34
2022-11-16T19:32:05.462Z,51.3
2022-11-16T19:36:57.936Z,51.38
2022-11-16T19:41:50.581Z,51.45
2022-11-16T19:46:43.181Z,51.51
2022-11-16T19:51:35.522Z,51.64
2022-11-16T19:56:28.038Z,51.65
2022-11-16T20:01:20.793Z,51.73
2022-11-16T20:06:12.946Z,51.75
2022-11-16T20:11:05.395Z,51.84
2022-11-16T20:15:57.814Z,51.89
2022-11-16T20:25:42.986Z,52.13
2022-11-16T20:30:35.490Z,52.28
2022-11-16T20:35:28.227Z,52.28
2022-11-16T20:45:13.309Z,52.3
2022-11-16T20:50:05.792Z,52.47
2022-11-16T20:54:58.276Z,52.27
2022-11-16T20:59:51.152Z,52.25
2022-11-16T21:04:44.027Z,52.29
2022-11-16T21:09:36.112Z,52.4
2022-11-16T21:14:28.654Z,52.38
2022-11-16T21:19:21.211Z,52.37
2022-11-16T21:24:13.933Z,52.24
2022-11-16T21:29:06.594Z,52.21
2022-11-16T21:33:59.236Z,52.31
2022-11-16T21:38:51.953Z,52.29
2022-11-16T21:43:44.601Z,52.09
2022-11-16T21:48:37.027Z,52.12
2022-11-16T21:53:29.647Z,52.09
2022-11-16T21:58:22.215Z,52.08
2022-11-16T22:03:14.710Z,52.07
2022-11-16T22:08:07.315Z,51.09
2022-11-16T22:12:59.981Z,51.29
2022-11-16T22:17:52.836Z,51.34
2022-11-16T22:22:45.297Z,51.38
2022-11-16T22:27:52.313Z,51.41
2022-11-16T22:32:30.371Z,51.38
2022-11-16T22:37:22.855Z,51.4
2022-11-16T22:42:15.391Z,51.34
2022-11-16T22:47:07.826Z,51.39
2022-11-16T22:52:00.458Z,51.43
2022-11-16T22:56:53.077Z,51.47
2022-11-16T23:01:45.829Z,51.54
2022-11-16T23:06:38.181Z,51.56
2022-11-16T23:11:30.851Z,51.5
2022-11-16T23:16:23.657Z,51.56
2022-11-16T23:21:16.353Z,51.52
2022-11-16T23:26:08.828Z,51.45
2022-11-16T23:31:01.389Z,51.44
2022-11-16T23:35:53.974Z,51.44
2022-11-16T23:40:46.568Z,51.45
2022-11-16T23:45:39.087Z,51.42
2022-11-16T23:50:31.758Z,51.46
2022-11-16T23:55:24.147Z,51.41
